sensor_id;sensor_type;location;lat;lon;timestamp;P1;durP1;ratioP1;P2;durP2;ratioP2
4812;SDS011;2420;51.202;8.698;2024-03-08T00:00:13;29.98;;;16.95;;
4812;SDS011;2420;51.202;8.698;2024-03-08T00:02:40;31.40;;;17.70;;
4812;SDS011;2420;51.202;8.698;2024-03-08T00:05:06;30.33;;;16.70;;
4812;SDS011;2420;51.202;8.698;2024-03-08T00:07:36;28.40;;;17.02;;
4812;SDS011;2420;51.202;8.698;2024-03-08T00:10:06;29.67;;;16.63;;
4812;SDS011;2420;51.202;8.698;2024-03-08T00:12:36;30.77;;;17.55;;
4812;SDS011;2420;51.202;8.698;2024-03-08T00:15:07;33.58;;;17.42;;
4812;SDS011;2420;51.202;8.698;2024-03-08T00:17:33;29.92;;;17.08;;
4812;SDS011;2420;51.202;8.698;2024-03-08T00:19:59;29.25;;;17.15;;
4812;SDS011;2420;51.202;8.698;2024-03-08T00:22:25;29.13;;;17.10;;
4812;SDS011;2420;51.202;8.698;2024-03-08T00:24:50;29.75;;;16.42;;
4812;SDS011;2420;51.202;8.698;2024-03-08T00:27:16;29.13;;;17.00;;
4812;SDS011;2420;51.202;8.698;2024-03-08T00:29:41;30.85;;;16.52;;
4812;SDS011;2420;51.202;8.698;2024-03-08T00:32:07;32.05;;;17.10;;
4812;SDS011;2420;51.202;8.698;2024-03-08T00:34:34;32.97;;;17.40;;
4812;SDS011;2420;51.202;8.698;2024-03-08T00:37:01;28.33;;;16.85;;
4812;SDS011;2420;51.202;8.698;2024-03-08T00:39:28;29.85;;;17.23;;
4812;SDS011;2420;51.202;8.698;2024-03-08T00:41:53;31.60;;;18.20;;
4812;SDS011;2420;51.202;8.698;2024-03-08T00:44:19;31.77;;;18.58;;
4812;SDS011;2420;51.202;8.698;2024-03-08T00:46:44;34.42;;;18.73;;
4812;SDS011;2420;51.202;8.698;2024-03-08T00:49:10;34.17;;;18.75;;
4812;SDS011;2420;51.202;8.698;2024-03-08T00:51:37;30.38;;;18.17;;
4812;SDS011;2420;51.202;8.698;2024-03-08T00:54:03;34.55;;;19.35;;
4812;SDS011;2420;51.202;8.698;2024-03-08T00:56:28;32.78;;;18.30;;
4812;SDS011;2420;51.202;8.698;2024-03-08T00:58:54;32.88;;;18.67;;
4812;SDS011;2420;51.202;8.698;2024-03-08T01:01:20;35.60;;;18.40;;
4812;SDS011;2420;51.202;8.698;2024-03-08T01:03:45;32.30;;;17.67;;
4812;SDS011;2420;51.202;8.698;2024-03-08T01:06:11;33.20;;;18.23;;
4812;SDS011;2420;51.202;8.698;2024-03-08T01:08:37;32.10;;;17.70;;
4812;SDS011;2420;51.202;8.698;2024-03-08T01:11:07;30.48;;;17.27;;
4812;SDS011;2420;51.202;8.698;2024-03-08T01:13:33;32.92;;;17.77;;
4812;SDS011;2420;51.202;8.698;2024-03-08T01:15:59;33.67;;;19.15;;
4812;SDS011;2420;51.202;8.698;2024-03-08T01:18:25;32.40;;;18.00;;
4812;SDS011;2420;51.202;8.698;2024-03-08T01:20:50;31.60;;;17.60;;
4812;SDS011;2420;51.202;8.698;2024-03-08T01:23:16;31.95;;;18.63;;
4812;SDS011;2420;51.202;8.698;2024-03-08T01:25:42;32.20;;;18.65;;
4812;SDS011;2420;51.202;8.698;2024-03-08T01:28:09;31.58;;;17.80;;
4812;SDS011;2420;51.202;8.698;2024-03-08T01:30:34;31.80;;;17.75;;
4812;SDS011;2420;51.202;8.698;2024-03-08T01:33:01;31.30;;;17.40;;
4812;SDS011;2420;51.202;8.698;2024-03-08T01:35:27;33.00;;;18.27;;
4812;SDS011;2420;51.202;8.698;2024-03-08T01:37:53;31.60;;;17.50;;
4812;SDS011;2420;51.202;8.698;2024-03-08T01:40:18;33.53;;;19.27;;
4812;SDS011;2420;51.202;8.698;2024-03-08T01:42:44;31.23;;;18.40;;
4812;SDS011;2420;51.202;8.698;2024-03-08T01:45:10;33.38;;;18.45;;
4812;SDS011;2420;51.202;8.698;2024-03-08T01:47:35;34.53;;;17.52;;
4812;SDS011;2420;51.202;8.698;2024-03-08T01:50:02;32.13;;;18.48;;
4812;SDS011;2420;51.202;8.698;2024-03-08T01:52:29;32.75;;;17.92;;
4812;SDS011;2420;51.202;8.698;2024-03-08T01:54:57;36.08;;;19.15;;
4812;SDS011;2420;51.202;8.698;2024-03-08T01:57:28;28.95;;;17.63;;
4812;SDS011;2420;51.202;8.698;2024-03-08T01:59:56;32.17;;;18.13;;
4812;SDS011;2420;51.202;8.698;2024-03-08T02:02:22;31.88;;;17.67;;
4812;SDS011;2420;51.202;8.698;2024-03-08T02:04:48;32.28;;;18.65;;
4812;SDS011;2420;51.202;8.698;2024-03-08T02:07:15;32.72;;;18.48;;
4812;SDS011;2420;51.202;8.698;2024-03-08T02:09:41;31.08;;;18.02;;
4812;SDS011;2420;51.202;8.698;2024-03-08T02:12:07;32.50;;;18.33;;
4812;SDS011;2420;51.202;8.698;2024-03-08T02:14:33;35.83;;;19.25;;
4812;SDS011;2420;51.202;8.698;2024-03-08T02:17:02;35.83;;;19.05;;
4812;SDS011;2420;51.202;8.698;2024-03-08T02:19:27;33.33;;;17.77;;
4812;SDS011;2420;51.202;8.698;2024-03-08T02:21:53;31.10;;;18.63;;
4812;SDS011;2420;51.202;8.698;2024-03-08T02:24:19;35.80;;;18.73;;
4812;SDS011;2420;51.202;8.698;2024-03-08T02:26:44;34.80;;;18.90;;
4812;SDS011;2420;51.202;8.698;2024-03-08T02:29:11;34.20;;;19.05;;
4812;SDS011;2420;51.202;8.698;2024-03-08T02:31:36;31.95;;;17.55;;
4812;SDS011;2420;51.202;8.698;2024-03-08T02:34:04;36.17;;;19.65;;
4812;SDS011;2420;51.202;8.698;2024-03-08T02:36:30;31.52;;;18.40;;
4812;SDS011;2420;51.202;8.698;2024-03-08T02:38:59;34.42;;;17.88;;
4812;SDS011;2420;51.202;8.698;2024-03-08T02:41:27;33.60;;;18.83;;
4812;SDS011;2420;51.202;8.698;2024-03-08T02:43:52;34.38;;;18.98;;
4812;SDS011;2420;51.202;8.698;2024-03-08T02:46:20;32.03;;;18.15;;
4812;SDS011;2420;51.202;8.698;2024-03-08T02:48:45;34.83;;;18.88;;
4812;SDS011;2420;51.202;8.698;2024-03-08T02:51:11;33.97;;;18.85;;
4812;SDS011;2420;51.202;8.698;2024-03-08T02:53:38;35.22;;;19.05;;
4812;SDS011;2420;51.202;8.698;2024-03-08T02:56:04;35.00;;;19.15;;
4812;SDS011;2420;51.202;8.698;2024-03-08T02:58:33;32.28;;;18.55;;
4812;SDS011;2420;51.202;8.698;2024-03-08T03:00:59;34.22;;;19.42;;
4812;SDS011;2420;51.202;8.698;2024-03-08T03:03:24;31.67;;;18.52;;
4812;SDS011;2420;51.202;8.698;2024-03-08T03:05:51;39.13;;;19.77;;
4812;SDS011;2420;51.202;8.698;2024-03-08T03:08:20;36.78;;;19.20;;
4812;SDS011;2420;51.202;8.698;2024-03-08T03:10:46;35.97;;;19.60;;
4812;SDS011;2420;51.202;8.698;2024-03-08T03:13:12;38.22;;;20.38;;
4812;SDS011;2420;51.202;8.698;2024-03-08T03:15:39;36.92;;;20.05;;
4812;SDS011;2420;51.202;8.698;2024-03-08T03:18:06;33.75;;;18.70;;
4812;SDS011;2420;51.202;8.698;2024-03-08T03:20:32;35.28;;;19.00;;
4812;SDS011;2420;51.202;8.698;2024-03-08T03:23:02;34.15;;;18.73;;
4812;SDS011;2420;51.202;8.698;2024-03-08T03:25:28;36.05;;;19.33;;
4812;SDS011;2420;51.202;8.698;2024-03-08T03:27:58;35.15;;;20.20;;
4812;SDS011;2420;51.202;8.698;2024-03-08T03:30:24;36.03;;;18.92;;
4812;SDS011;2420;51.202;8.698;2024-03-08T03:32:51;36.25;;;20.23;;
4812;SDS011;2420;51.202;8.698;2024-03-08T03:35:18;34.05;;;19.17;;
4812;SDS011;2420;51.202;8.698;2024-03-08T03:37:45;36.05;;;19.70;;
4812;SDS011;2420;51.202;8.698;2024-03-08T03:40:26;34.15;;;19.80;;
4812;SDS011;2420;51.202;8.698;2024-03-08T03:42:55;38.03;;;20.77;;
4812;SDS011;2420;51.202;8.698;2024-03-08T03:45:21;40.92;;;19.75;;
4812;SDS011;2420;51.202;8.698;2024-03-08T03:47:46;37.00;;;20.02;;
4812;SDS011;2420;51.202;8.698;2024-03-08T03:50:12;34.47;;;19.50;;
4812;SDS011;2420;51.202;8.698;2024-03-08T03:52:38;35.95;;;19.80;;
4812;SDS011;2420;51.202;8.698;2024-03-08T03:55:04;36.72;;;20.45;;
4812;SDS011;2420;51.202;8.698;2024-03-08T03:57:30;38.65;;;20.60;;
4812;SDS011;2420;51.202;8.698;2024-03-08T03:59:56;35.92;;;20.33;;
4812;SDS011;2420;51.202;8.698;2024-03-08T04:02:23;37.08;;;19.30;;
4812;SDS011;2420;51.202;8.698;2024-03-08T04:04:49;36.53;;;20.08;;
4812;SDS011;2420;51.202;8.698;2024-03-08T04:07:15;38.17;;;19.88;;
4812;SDS011;2420;51.202;8.698;2024-03-08T04:09:40;34.17;;;19.92;;
4812;SDS011;2420;51.202;8.698;2024-03-08T04:12:06;34.80;;;19.83;;
4812;SDS011;2420;51.202;8.698;2024-03-08T04:14:32;34.25;;;19.70;;
4812;SDS011;2420;51.202;8.698;2024-03-08T04:16:58;40.35;;;21.10;;
4812;SDS011;2420;51.202;8.698;2024-03-08T04:19:23;36.28;;;20.52;;
4812;SDS011;2420;51.202;8.698;2024-03-08T04:21:51;40.22;;;20.42;;
4812;SDS011;2420;51.202;8.698;2024-03-08T04:24:16;37.03;;;20.20;;
4812;SDS011;2420;51.202;8.698;2024-03-08T04:26:42;36.75;;;19.95;;
4812;SDS011;2420;51.202;8.698;2024-03-08T04:29:08;38.55;;;20.80;;
4812;SDS011;2420;51.202;8.698;2024-03-08T04:31:34;40.10;;;20.70;;
4812;SDS011;2420;51.202;8.698;2024-03-08T04:33:59;39.83;;;20.98;;
4812;SDS011;2420;51.202;8.698;2024-03-08T04:36:25;36.83;;;21.10;;
4812;SDS011;2420;51.202;8.698;2024-03-08T04:38:50;39.25;;;20.88;;
4812;SDS011;2420;51.202;8.698;2024-03-08T04:41:16;40.30;;;21.00;;
4812;SDS011;2420;51.202;8.698;2024-03-08T04:43:43;39.92;;;21.08;;
4812;SDS011;2420;51.202;8.698;2024-03-08T04:46:08;35.80;;;20.90;;
4812;SDS011;2420;51.202;8.698;2024-03-08T04:48:34;39.30;;;20.48;;
4812;SDS011;2420;51.202;8.698;2024-03-08T04:51:02;40.60;;;20.58;;
4812;SDS011;2420;51.202;8.698;2024-03-08T04:53:28;36.80;;;19.98;;
4812;SDS011;2420;51.202;8.698;2024-03-08T04:55:54;37.67;;;21.17;;
4812;SDS011;2420;51.202;8.698;2024-03-08T04:58:22;39.65;;;21.00;;
4812;SDS011;2420;51.202;8.698;2024-03-08T05:00:48;38.88;;;21.50;;
4812;SDS011;2420;51.202;8.698;2024-03-08T05:03:14;42.80;;;20.92;;
4812;SDS011;2420;51.202;8.698;2024-03-08T05:05:39;40.20;;;22.05;;
4812;SDS011;2420;51.202;8.698;2024-03-08T05:08:05;39.22;;;21.05;;
4812;SDS011;2420;51.202;8.698;2024-03-08T05:10:31;40.15;;;21.08;;
4812;SDS011;2420;51.202;8.698;2024-03-08T05:12:57;40.15;;;21.17;;
4812;SDS011;2420;51.202;8.698;2024-03-08T05:15:23;39.53;;;21.35;;
4812;SDS011;2420;51.202;8.698;2024-03-08T05:17:48;43.28;;;22.13;;
4812;SDS011;2420;51.202;8.698;2024-03-08T05:20:14;40.50;;;21.52;;
4812;SDS011;2420;51.202;8.698;2024-03-08T05:22:42;44.85;;;23.45;;
4812;SDS011;2420;51.202;8.698;2024-03-08T05:25:08;38.72;;;21.02;;
4812;SDS011;2420;51.202;8.698;2024-03-08T05:27:34;40.33;;;21.05;;
4812;SDS011;2420;51.202;8.698;2024-03-08T05:30:01;46.88;;;21.88;;
4812;SDS011;2420;51.202;8.698;2024-03-08T05:32:30;38.67;;;20.65;;
4812;SDS011;2420;51.202;8.698;2024-03-08T05:34:56;42.58;;;22.05;;
4812;SDS011;2420;51.202;8.698;2024-03-08T05:37:22;40.95;;;20.92;;
4812;SDS011;2420;51.202;8.698;2024-03-08T05:39:47;42.28;;;21.17;;
4812;SDS011;2420;51.202;8.698;2024-03-08T05:42:13;38.45;;;21.45;;
4812;SDS011;2420;51.202;8.698;2024-03-08T05:44:38;40.70;;;20.92;;
4812;SDS011;2420;51.202;8.698;2024-03-08T05:47:05;46.72;;;21.45;;
4812;SDS011;2420;51.202;8.698;2024-03-08T05:49:32;40.22;;;21.23;;
4812;SDS011;2420;51.202;8.698;2024-03-08T05:51:57;39.47;;;21.95;;
4812;SDS011;2420;51.202;8.698;2024-03-08T05:54:24;42.65;;;21.13;;
4812;SDS011;2420;51.202;8.698;2024-03-08T05:56:49;41.67;;;22.20;;
4812;SDS011;2420;51.202;8.698;2024-03-08T05:59:18;41.20;;;22.58;;
4812;SDS011;2420;51.202;8.698;2024-03-08T06:01:43;45.45;;;23.30;;
4812;SDS011;2420;51.202;8.698;2024-03-08T06:04:11;41.88;;;22.02;;
4812;SDS011;2420;51.202;8.698;2024-03-08T06:06:36;42.30;;;21.98;;
4812;SDS011;2420;51.202;8.698;2024-03-08T06:09:05;38.38;;;21.73;;
4812;SDS011;2420;51.202;8.698;2024-03-08T06:11:41;43.65;;;22.70;;
4812;SDS011;2420;51.202;8.698;2024-03-08T06:14:07;42.38;;;22.98;;
4812;SDS011;2420;51.202;8.698;2024-03-08T06:16:33;38.42;;;22.05;;
4812;SDS011;2420;51.202;8.698;2024-03-08T06:18:58;42.58;;;21.95;;
4812;SDS011;2420;51.202;8.698;2024-03-08T06:21:27;44.65;;;22.35;;
4812;SDS011;2420;51.202;8.698;2024-03-08T06:23:55;44.58;;;23.27;;
4812;SDS011;2420;51.202;8.698;2024-03-08T06:26:22;47.08;;;23.00;;
4812;SDS011;2420;51.202;8.698;2024-03-08T06:28:49;43.55;;;22.95;;
4812;SDS011;2420;51.202;8.698;2024-03-08T06:31:15;43.55;;;22.20;;
4812;SDS011;2420;51.202;8.698;2024-03-08T06:33:41;44.40;;;22.08;;
4812;SDS011;2420;51.202;8.698;2024-03-08T06:36:07;47.03;;;22.95;;
4812;SDS011;2420;51.202;8.698;2024-03-08T06:38:34;45.42;;;24.05;;
4812;SDS011;2420;51.202;8.698;2024-03-08T06:40:59;43.30;;;22.52;;
4812;SDS011;2420;51.202;8.698;2024-03-08T06:43:28;40.42;;;22.05;;
4812;SDS011;2420;51.202;8.698;2024-03-08T06:45:59;42.83;;;22.00;;
4812;SDS011;2420;51.202;8.698;2024-03-08T06:48:24;40.58;;;22.83;;
4812;SDS011;2420;51.202;8.698;2024-03-08T06:50:50;44.47;;;22.60;;
4812;SDS011;2420;51.202;8.698;2024-03-08T06:53:16;45.72;;;24.35;;
4812;SDS011;2420;51.202;8.698;2024-03-08T06:55:44;41.33;;;22.67;;
4812;SDS011;2420;51.202;8.698;2024-03-08T06:58:10;46.65;;;24.20;;
4812;SDS011;2420;51.202;8.698;2024-03-08T07:00:35;45.60;;;23.30;;
4812;SDS011;2420;51.202;8.698;2024-03-08T07:03:02;46.50;;;24.20;;
4812;SDS011;2420;51.202;8.698;2024-03-08T07:05:28;43.38;;;23.50;;
4812;SDS011;2420;51.202;8.698;2024-03-08T07:07:55;46.75;;;23.30;;
4812;SDS011;2420;51.202;8.698;2024-03-08T07:10:21;41.15;;;23.15;;
4812;SDS011;2420;51.202;8.698;2024-03-08T07:12:49;44.92;;;24.25;;
4812;SDS011;2420;51.202;8.698;2024-03-08T07:15:15;47.95;;;24.00;;
4812;SDS011;2420;51.202;8.698;2024-03-08T07:17:44;45.75;;;23.67;;
4812;SDS011;2420;51.202;8.698;2024-03-08T07:20:11;40.47;;;22.52;;
4812;SDS011;2420;51.202;8.698;2024-03-08T07:22:38;45.20;;;23.20;;
4812;SDS011;2420;51.202;8.698;2024-03-08T07:25:04;41.75;;;22.48;;
4812;SDS011;2420;51.202;8.698;2024-03-08T07:27:49;47.25;;;23.90;;
4812;SDS011;2420;51.202;8.698;2024-03-08T07:30:16;46.50;;;23.50;;
4812;SDS011;2420;51.202;8.698;2024-03-08T07:33:02;43.70;;;23.23;;
4812;SDS011;2420;51.202;8.698;2024-03-08T07:35:28;41.00;;;22.98;;
4812;SDS011;2420;51.202;8.698;2024-03-08T07:37:55;46.13;;;23.88;;
4812;SDS011;2420;51.202;8.698;2024-03-08T07:40:21;42.38;;;23.98;;
4812;SDS011;2420;51.202;8.698;2024-03-08T07:42:48;42.63;;;23.40;;
4812;SDS011;2420;51.202;8.698;2024-03-08T07:45:16;45.95;;;24.17;;
4812;SDS011;2420;51.202;8.698;2024-03-08T07:47:42;40.28;;;22.00;;
4812;SDS011;2420;51.202;8.698;2024-03-08T07:50:08;43.60;;;23.55;;
4812;SDS011;2420;51.202;8.698;2024-03-08T07:52:34;39.75;;;22.55;;
4812;SDS011;2420;51.202;8.698;2024-03-08T07:55:01;40.67;;;23.60;;
4812;SDS011;2420;51.202;8.698;2024-03-08T07:57:27;40.33;;;23.35;;
4812;SDS011;2420;51.202;8.698;2024-03-08T07:59:52;44.30;;;22.88;;
4812;SDS011;2420;51.202;8.698;2024-03-08T08:02:18;41.20;;;22.65;;
4812;SDS011;2420;51.202;8.698;2024-03-08T08:04:43;42.78;;;23.15;;
4812;SDS011;2420;51.202;8.698;2024-03-08T08:07:12;44.20;;;22.77;;
4812;SDS011;2420;51.202;8.698;2024-03-08T08:09:38;39.53;;;22.95;;
4812;SDS011;2420;51.202;8.698;2024-03-08T08:12:04;42.78;;;23.25;;
4812;SDS011;2420;51.202;8.698;2024-03-08T08:14:30;42.92;;;23.52;;
4812;SDS011;2420;51.202;8.698;2024-03-08T08:16:56;44.17;;;23.13;;
4812;SDS011;2420;51.202;8.698;2024-03-08T08:19:22;44.47;;;22.95;;
4812;SDS011;2420;51.202;8.698;2024-03-08T08:21:48;39.53;;;22.55;;
4812;SDS011;2420;51.202;8.698;2024-03-08T08:24:14;41.45;;;22.88;;
4812;SDS011;2420;51.202;8.698;2024-03-08T08:26:40;43.05;;;22.40;;
4812;SDS011;2420;51.202;8.698;2024-03-08T08:29:06;37.50;;;20.63;;
4812;SDS011;2420;51.202;8.698;2024-03-08T08:31:32;38.97;;;21.75;;
4812;SDS011;2420;51.202;8.698;2024-03-08T08:33:58;36.67;;;20.58;;
4812;SDS011;2420;51.202;8.698;2024-03-08T08:36:24;36.80;;;20.30;;
4812;SDS011;2420;51.202;8.698;2024-03-08T08:38:50;36.60;;;20.92;;
4812;SDS011;2420;51.202;8.698;2024-03-08T08:41:16;36.00;;;20.40;;
4812;SDS011;2420;51.202;8.698;2024-03-08T08:43:42;33.35;;;19.63;;
4812;SDS011;2420;51.202;8.698;2024-03-08T08:46:11;36.58;;;19.63;;
4812;SDS011;2420;51.202;8.698;2024-03-08T08:48:39;37.58;;;21.17;;
4812;SDS011;2420;51.202;8.698;2024-03-08T08:51:14;35.70;;;20.23;;
4812;SDS011;2420;51.202;8.698;2024-03-08T08:53:40;35.45;;;20.23;;
4812;SDS011;2420;51.202;8.698;2024-03-08T08:56:10;38.30;;;19.05;;
4812;SDS011;2420;51.202;8.698;2024-03-08T08:58:37;37.08;;;19.30;;
4812;SDS011;2420;51.202;8.698;2024-03-08T09:01:07;36.97;;;20.38;;
4812;SDS011;2420;51.202;8.698;2024-03-08T09:03:35;35.80;;;19.95;;
4812;SDS011;2420;51.202;8.698;2024-03-08T09:06:02;37.72;;;20.55;;
4812;SDS011;2420;51.202;8.698;2024-03-08T09:08:30;35.42;;;19.55;;
4812;SDS011;2420;51.202;8.698;2024-03-08T09:10:56;36.38;;;21.02;;
4812;SDS011;2420;51.202;8.698;2024-03-08T09:13:21;37.80;;;20.13;;
4812;SDS011;2420;51.202;8.698;2024-03-08T09:15:48;33.97;;;19.45;;
4812;SDS011;2420;51.202;8.698;2024-03-08T09:18:13;33.55;;;19.25;;
4812;SDS011;2420;51.202;8.698;2024-03-08T09:20:39;33.08;;;19.70;;
4812;SDS011;2420;51.202;8.698;2024-03-08T09:23:06;35.53;;;20.13;;
4812;SDS011;2420;51.202;8.698;2024-03-08T09:25:32;38.08;;;20.05;;
4812;SDS011;2420;51.202;8.698;2024-03-08T09:27:58;39.50;;;23.00;;
4812;SDS011;2420;51.202;8.698;2024-03-08T09:30:23;34.17;;;21.00;;
4812;SDS011;2420;51.202;8.698;2024-03-08T09:32:49;36.13;;;21.13;;
4812;SDS011;2420;51.202;8.698;2024-03-08T09:35:16;37.45;;;20.83;;
4812;SDS011;2420;51.202;8.698;2024-03-08T09:37:41;30.95;;;18.30;;
4812;SDS011;2420;51.202;8.698;2024-03-08T09:40:07;32.63;;;18.25;;
4812;SDS011;2420;51.202;8.698;2024-03-08T09:42:40;30.33;;;18.23;;
4812;SDS011;2420;51.202;8.698;2024-03-08T09:45:09;30.95;;;17.90;;
4812;SDS011;2420;51.202;8.698;2024-03-08T09:47:36;34.75;;;21.20;;
4812;SDS011;2420;51.202;8.698;2024-03-08T09:50:07;31.60;;;18.98;;
4812;SDS011;2420;51.202;8.698;2024-03-08T09:52:34;30.70;;;19.27;;
4812;SDS011;2420;51.202;8.698;2024-03-08T09:55:22;31.88;;;18.33;;
4812;SDS011;2420;51.202;8.698;2024-03-08T09:57:47;31.75;;;17.80;;
4812;SDS011;2420;51.202;8.698;2024-03-08T10:00:33;30.45;;;17.02;;
4812;SDS011;2420;51.202;8.698;2024-03-08T10:03:02;28.13;;;17.38;;
4812;SDS011;2420;51.202;8.698;2024-03-08T10:05:28;30.83;;;18.95;;
4812;SDS011;2420;51.202;8.698;2024-03-08T10:07:55;28.15;;;17.85;;
4812;SDS011;2420;51.202;8.698;2024-03-08T10:10:23;29.15;;;17.33;;
4812;SDS011;2420;51.202;8.698;2024-03-08T10:12:49;30.92;;;17.70;;
4812;SDS011;2420;51.202;8.698;2024-03-08T10:15:15;26.10;;;16.60;;
4812;SDS011;2420;51.202;8.698;2024-03-08T10:17:45;27.95;;;16.50;;
4812;SDS011;2420;51.202;8.698;2024-03-08T10:20:14;29.40;;;17.55;;
4812;SDS011;2420;51.202;8.698;2024-03-08T10:22:41;25.55;;;16.40;;
4812;SDS011;2420;51.202;8.698;2024-03-08T10:25:10;27.35;;;16.63;;
4812;SDS011;2420;51.202;8.698;2024-03-08T10:27:37;28.10;;;16.88;;
4812;SDS011;2420;51.202;8.698;2024-03-08T10:30:05;26.75;;;16.45;;
4812;SDS011;2420;51.202;8.698;2024-03-08T10:32:35;28.27;;;18.60;;
4812;SDS011;2420;51.202;8.698;2024-03-08T10:35:00;28.65;;;17.08;;
4812;SDS011;2420;51.202;8.698;2024-03-08T10:37:26;25.38;;;15.48;;
4812;SDS011;2420;51.202;8.698;2024-03-08T10:42:35;29.65;;;18.08;;
4812;SDS011;2420;51.202;8.698;2024-03-08T10:45:09;27.58;;;16.95;;
4812;SDS011;2420;51.202;8.698;2024-03-08T10:47:46;25.58;;;16.00;;
4812;SDS011;2420;51.202;8.698;2024-03-08T10:50:17;26.55;;;16.50;;
4812;SDS011;2420;51.202;8.698;2024-03-08T10:52:50;27.25;;;17.02;;
4812;SDS011;2420;51.202;8.698;2024-03-08T10:55:18;26.63;;;16.05;;
4812;SDS011;2420;51.202;8.698;2024-03-08T10:57:45;25.10;;;15.40;;
4812;SDS011;2420;51.202;8.698;2024-03-08T11:00:12;25.73;;;15.52;;
4812;SDS011;2420;51.202;8.698;2024-03-08T11:02:39;24.40;;;15.25;;
4812;SDS011;2420;51.202;8.698;2024-03-08T11:05:10;25.20;;;15.32;;
4812;SDS011;2420;51.202;8.698;2024-03-08T11:07:40;25.75;;;16.33;;
4812;SDS011;2420;51.202;8.698;2024-03-08T11:10:18;24.70;;;15.40;;
4812;SDS011;2420;51.202;8.698;2024-03-08T11:12:44;25.13;;;15.27;;
4812;SDS011;2420;51.202;8.698;2024-03-08T11:15:12;26.42;;;16.02;;
4812;SDS011;2420;51.202;8.698;2024-03-08T11:17:47;24.15;;;14.52;;
4812;SDS011;2420;51.202;8.698;2024-03-08T11:20:15;22.65;;;14.25;;
4812;SDS011;2420;51.202;8.698;2024-03-08T11:22:42;24.02;;;13.98;;
4812;SDS011;2420;51.202;8.698;2024-03-08T11:28:22;23.70;;;14.60;;
4812;SDS011;2420;51.202;8.698;2024-03-08T11:33:30;23.45;;;14.80;;
4812;SDS011;2420;51.202;8.698;2024-03-08T11:36:03;20.88;;;13.55;;
4812;SDS011;2420;51.202;8.698;2024-03-08T11:38:42;22.55;;;14.43;;
4812;SDS011;2420;51.202;8.698;2024-03-08T11:41:08;24.52;;;15.00;;
4812;SDS011;2420;51.202;8.698;2024-03-08T11:43:37;23.70;;;14.35;;
4812;SDS011;2420;51.202;8.698;2024-03-08T11:46:08;23.55;;;13.90;;
4812;SDS011;2420;51.202;8.698;2024-03-08T11:48:34;24.70;;;14.93;;
4812;SDS011;2420;51.202;8.698;2024-03-08T11:51:03;21.52;;;14.70;;
4812;SDS011;2420;51.202;8.698;2024-03-08T11:53:29;26.25;;;14.90;;
4812;SDS011;2420;51.202;8.698;2024-03-08T11:56:05;21.65;;;14.23;;
4812;SDS011;2420;51.202;8.698;2024-03-08T11:58:38;24.42;;;14.40;;
4812;SDS011;2420;51.202;8.698;2024-03-08T12:01:11;21.13;;;13.80;;
4812;SDS011;2420;51.202;8.698;2024-03-08T12:03:38;22.63;;;14.15;;
4812;SDS011;2420;51.202;8.698;2024-03-08T12:06:04;22.92;;;14.00;;
4812;SDS011;2420;51.202;8.698;2024-03-08T12:08:30;23.38;;;14.48;;
4812;SDS011;2420;51.202;8.698;2024-03-08T12:10:57;22.75;;;14.05;;
4812;SDS011;2420;51.202;8.698;2024-03-08T12:13:26;22.73;;;14.10;;
4812;SDS011;2420;51.202;8.698;2024-03-08T12:15:55;22.48;;;14.93;;
4812;SDS011;2420;51.202;8.698;2024-03-08T12:18:28;25.02;;;13.52;;
4812;SDS011;2420;51.202;8.698;2024-03-08T12:21:04;26.27;;;15.13;;
4812;SDS011;2420;51.202;8.698;2024-03-08T12:23:32;21.50;;;14.88;;
4812;SDS011;2420;51.202;8.698;2024-03-08T12:26:14;23.05;;;14.68;;
4812;SDS011;2420;51.202;8.698;2024-03-08T12:28:44;24.73;;;14.93;;
4812;SDS011;2420;51.202;8.698;2024-03-08T12:31:13;22.92;;;14.50;;
4812;SDS011;2420;51.202;8.698;2024-03-08T12:36:14;26.05;;;15.80;;
4812;SDS011;2420;51.202;8.698;2024-03-08T12:38:44;26.67;;;16.02;;
4812;SDS011;2420;51.202;8.698;2024-03-08T12:41:16;24.38;;;15.57;;
4812;SDS011;2420;51.202;8.698;2024-03-08T12:43:43;26.13;;;16.13;;
4812;SDS011;2420;51.202;8.698;2024-03-08T12:46:19;24.30;;;15.07;;
4812;SDS011;2420;51.202;8.698;2024-03-08T12:48:46;22.73;;;14.50;;
4812;SDS011;2420;51.202;8.698;2024-03-08T12:51:14;26.83;;;16.45;;
4812;SDS011;2420;51.202;8.698;2024-03-08T12:53:44;25.17;;;15.90;;
4812;SDS011;2420;51.202;8.698;2024-03-08T12:56:11;26.38;;;15.90;;
4812;SDS011;2420;51.202;8.698;2024-03-08T12:58:37;23.73;;;15.73;;
4812;SDS011;2420;51.202;8.698;2024-03-08T13:01:04;24.02;;;15.35;;
4812;SDS011;2420;51.202;8.698;2024-03-08T13:03:32;26.90;;;15.05;;
4812;SDS011;2420;51.202;8.698;2024-03-08T13:06:01;28.50;;;15.82;;
4812;SDS011;2420;51.202;8.698;2024-03-08T13:08:28;23.10;;;14.95;;
4812;SDS011;2420;51.202;8.698;2024-03-08T13:10:56;24.70;;;15.40;;
4812;SDS011;2420;51.202;8.698;2024-03-08T13:13:21;24.02;;;15.40;;
4812;SDS011;2420;51.202;8.698;2024-03-08T13:15:47;25.08;;;15.25;;
4812;SDS011;2420;51.202;8.698;2024-03-08T13:18:13;23.35;;;15.13;;
4812;SDS011;2420;51.202;8.698;2024-03-08T13:20:40;24.40;;;14.98;;
4812;SDS011;2420;51.202;8.698;2024-03-08T13:23:09;27.40;;;16.63;;
4812;SDS011;2420;51.202;8.698;2024-03-08T13:25:34;27.83;;;16.35;;
4812;SDS011;2420;51.202;8.698;2024-03-08T13:28:03;24.65;;;15.63;;
4812;SDS011;2420;51.202;8.698;2024-03-08T13:30:29;23.92;;;15.48;;
4812;SDS011;2420;51.202;8.698;2024-03-08T13:32:55;25.55;;;15.77;;
4812;SDS011;2420;51.202;8.698;2024-03-08T13:35:21;25.20;;;15.57;;
4812;SDS011;2420;51.202;8.698;2024-03-08T13:37:51;24.75;;;15.35;;
4812;SDS011;2420;51.202;8.698;2024-03-08T13:40:17;26.25;;;15.93;;
4812;SDS011;2420;51.202;8.698;2024-03-08T13:42:45;26.48;;;16.55;;
4812;SDS011;2420;51.202;8.698;2024-03-08T13:45:12;27.15;;;15.70;;
4812;SDS011;2420;51.202;8.698;2024-03-08T13:47:39;23.58;;;15.13;;
4812;SDS011;2420;51.202;8.698;2024-03-08T13:50:06;24.25;;;14.90;;
4812;SDS011;2420;51.202;8.698;2024-03-08T13:52:37;21.42;;;14.32;;
4812;SDS011;2420;51.202;8.698;2024-03-08T13:55:03;25.15;;;14.93;;
4812;SDS011;2420;51.202;8.698;2024-03-08T13:57:32;21.05;;;13.88;;
4812;SDS011;2420;51.202;8.698;2024-03-08T13:59:58;26.23;;;15.70;;
4812;SDS011;2420;51.202;8.698;2024-03-08T14:02:24;27.25;;;16.45;;
4812;SDS011;2420;51.202;8.698;2024-03-08T14:04:56;29.17;;;16.42;;
4812;SDS011;2420;51.202;8.698;2024-03-08T14:07:22;24.95;;;16.35;;
4812;SDS011;2420;51.202;8.698;2024-03-08T14:09:48;27.08;;;17.15;;
4812;SDS011;2420;51.202;8.698;2024-03-08T14:12:18;26.15;;;16.40;;
4812;SDS011;2420;51.202;8.698;2024-03-08T14:14:44;27.73;;;16.75;;
4812;SDS011;2420;51.202;8.698;2024-03-08T14:17:09;27.45;;;17.10;;
4812;SDS011;2420;51.202;8.698;2024-03-08T14:19:36;29.17;;;16.75;;
4812;SDS011;2420;51.202;8.698;2024-03-08T14:22:02;29.05;;;17.13;;
4812;SDS011;2420;51.202;8.698;2024-03-08T14:24:29;27.88;;;17.83;;
4812;SDS011;2420;51.202;8.698;2024-03-08T14:26:55;26.70;;;17.55;;
4812;SDS011;2420;51.202;8.698;2024-03-08T14:29:23;28.95;;;17.38;;
4812;SDS011;2420;51.202;8.698;2024-03-08T14:31:54;29.90;;;18.35;;
4812;SDS011;2420;51.202;8.698;2024-03-08T14:34:23;29.17;;;17.70;;
4812;SDS011;2420;51.202;8.698;2024-03-08T14:36:52;25.80;;;16.83;;
4812;SDS011;2420;51.202;8.698;2024-03-08T14:39:18;30.50;;;18.25;;
4812;SDS011;2420;51.202;8.698;2024-03-08T14:41:46;30.77;;;17.92;;
4812;SDS011;2420;51.202;8.698;2024-03-08T14:44:12;29.27;;;18.17;;
4812;SDS011;2420;51.202;8.698;2024-03-08T14:46:38;29.48;;;17.70;;
4812;SDS011;2420;51.202;8.698;2024-03-08T14:49:04;27.25;;;16.45;;
4812;SDS011;2420;51.202;8.698;2024-03-08T14:51:30;28.67;;;16.52;;
4812;SDS011;2420;51.202;8.698;2024-03-08T14:53:56;28.50;;;16.92;;
4812;SDS011;2420;51.202;8.698;2024-03-08T14:56:22;27.20;;;16.95;;
4812;SDS011;2420;51.202;8.698;2024-03-08T14:58:48;29.15;;;17.52;;